createdAt,value
2022-11-04T00:02:10.568Z,21.20
2022-11-04T00:04:41.384Z,21.40
2022-11-04T00:07:31.398Z,21.40
2022-11-04T00:10:01.962Z,21.60
2022-11-04T00:12:32.752Z,21.60
2022-11-04T00:15:22.491Z,21.80
2022-11-04T00:17:52.576Z,21.90
2022-11-04T00:20:42.889Z,22.00
2022-11-04T00:23:32.873Z,22.00
2022-11-04T00:26:22.787Z,22.10
2022-11-04T00:28:55.735Z,22.20
2022-11-04T00:31:45.953Z,22.40
2022-11-04T00:34:16.037Z,22.50
2022-11-04T00:36:45.992Z,22.60
2022-11-04T00:39:16.314Z,22.60
2022-11-04T00:41:46.585Z,22.70
2022-11-04T00:44:16.944Z,22.80
2022-11-04T00:46:48.482Z,22.90
2022-11-04T00:49:19.034Z,23.00
2022-11-04T00:51:49.328Z,23.10
2022-11-04T00:54:19.991Z,23.20
2022-11-04T00:56:51.053Z,23.20
2022-11-04T00:59:21.219Z,23.10
2022-11-04T01:01:51.741Z,23.20
2022-11-04T01:04:22.204Z,23.30
2022-11-04T01:06:52.366Z,23.50
2022-11-04T01:09:23.458Z,23.60
2022-11-04T01:11:53.633Z,23.70
2022-11-04T01:14:24.913Z,23.70
2022-11-04T01:16:54.966Z,23.80
2022-11-04T01:19:25.033Z,24.00
2022-11-04T01:21:56.028Z,23.90
2022-11-04T01:24:27.259Z,24.00
2022-11-04T01:26:57.648Z,24.20
2022-11-04T01:29:28.581Z,24.30
2022-11-04T01:31:59.032Z,24.30
2022-11-04T01:34:30.118Z,24.50
2022-11-04T01:37:00.775Z,24.50
2022-11-04T01:39:31.501Z,24.60
2022-11-04T01:42:02.010Z,24.60
2022-11-04T01:44:53.695Z,24.90
2022-11-04T01:48:02.843Z,25.10
2022-11-04T01:50:36.979Z,25.20
2022-11-04T01:53:33.029Z,25.20
2022-11-04T01:56:13.616Z,25.20
2022-11-04T01:58:53.798Z,25.70
2022-11-04T02:01:24.912Z,25.80
2022-11-04T02:04:20.078Z,25.90
2022-11-04T02:06:51.389Z,25.90
2022-11-04T02:09:24.238Z,25.70
2022-11-04T02:12:14.359Z,26.00
2022-11-04T02:14:47.128Z,26.20
2022-11-04T02:17:47.637Z,26.30
2022-11-04T02:20:31.869Z,26.20
2022-11-04T02:23:37.205Z,26.30
2022-11-04T02:26:46.630Z,26.40
2022-11-04T02:29:55.795Z,26.70
2022-11-04T02:33:05.383Z,26.80
2022-11-04T02:36:10.657Z,27.00
2022-11-04T02:39:06.623Z,27.10
2022-11-04T02:41:58.229Z,27.30
2022-11-04T02:44:44.102Z,27.30
2022-11-04T02:47:23.760Z,27.40
2022-11-04T02:50:01.528Z,27.40
2022-11-04T02:52:58.230Z,27.70
2022-11-04T02:55:40.616Z,27.50
2022-11-04T02:58:21.745Z,27.50
2022-11-04T03:00:54.536Z,28.00
2022-11-04T03:03:29.360Z,27.80
2022-11-04T03:06:02.788Z,27.90
2022-11-04T03:08:37.846Z,28.10
2022-11-04T03:11:15.717Z,28.10
2022-11-04T03:14:01.183Z,28.20
2022-11-04T03:16:53.669Z,28.30
2022-11-04T03:19:53.628Z,28.40
2022-11-04T03:22:27.710Z,28.60
2022-11-04T03:24:59.303Z,28.80
2022-11-04T03:28:00.066Z,28.80
2022-11-04T03:30:41.831Z,28.80
2022-11-04T03:33:45.587Z,29.10
2022-11-04T03:36:16.555Z,29.20
2022-11-04T03:38:47.880Z,29.10
2022-11-04T03:41:30.038Z,29.40
2022-11-04T03:44:00.771Z,29.60
2022-11-04T03:46:31.675Z,29.50
2022-11-04T03:49:04.046Z,29.80
2022-11-04T03:51:34.949Z,29.80
2022-11-04T03:54:05.642Z,30.00
2022-11-04T03:57:15.655Z,30.20
2022-11-04T04:00:04.125Z,30.30
2022-11-04T04:03:08.580Z,30.10
2022-11-04T04:06:03.693Z,30.50
2022-11-04T04:09:01.825Z,30.40
2022-11-04T04:11:47.247Z,30.40
2022-11-04T04:14:45.895Z,30.60
2022-11-04T04:17:47.534Z,30.60
2022-11-04T04:20:24.420Z,30.50
2022-11-04T04:23:36.338Z,30.80
2022-11-04T04:26:29.889Z,30.60
2022-11-04T04:29:04.558Z,30.80
2022-11-04T04:31:57.542Z,30.90
2022-11-04T04:34:33.751Z,31.00
2022-11-04T04:37:25.209Z,30.80
2022-11-04T04:40:24.803Z,31.10
2022-11-04T04:43:15.848Z,31.30
2022-11-04T04:45:53.140Z,31.50
2022-11-04T04:48:23.195Z,31.30
2022-11-04T04:50:58.431Z,31.50
2022-11-04T04:53:29.418Z,31.60
2022-11-04T04:56:00.167Z,31.60
2022-11-04T04:58:31.318Z,31.80
2022-11-04T05:01:01.418Z,31.90
2022-11-04T05:03:31.495Z,31.90
2022-11-04T05:06:02.829Z,31.90
2022-11-04T05:08:33.466Z,32.10
2022-11-04T05:11:04.048Z,31.90
2022-11-04T05:13:35.065Z,32.00
2022-11-04T05:16:11.673Z,32.40
2022-11-04T05:18:42.095Z,32.10
2022-11-04T05:21:16.563Z,32.20
2022-11-04T05:23:46.966Z,32.50
2022-11-04T05:26:17.615Z,32.40
2022-11-04T05:28:48.085Z,31.90
2022-11-04T05:31:18.807Z,32.40
2022-11-04T05:33:49.369Z,32.70
2022-11-04T05:36:20.308Z,32.70
2022-11-04T05:38:57.159Z,32.10
2022-11-04T05:41:27.685Z,32.60
2022-11-04T05:44:01.042Z,32.90
2022-11-04T05:46:32.522Z,32.90
2022-11-04T05:49:02.941Z,32.60
2022-11-04T05:51:33.868Z,32.60
2022-11-04T05:54:05.163Z,32.30
2022-11-04T05:56:35.651Z,32.60
2022-11-04T05:59:06.119Z,32.80
2022-11-04T06:01:41.550Z,32.90
2022-11-04T06:04:17.322Z,32.90
2022-11-04T06:06:48.437Z,32.90
2022-11-04T06:09:18.948Z,32.90
2022-11-04T06:11:49.879Z,33.10
2022-11-04T06:14:20.377Z,32.90
2022-11-04T06:16:50.412Z,33.00
2022-11-04T06:19:21.032Z,33.10
2022-11-04T06:21:51.824Z,33.10
2022-11-04T06:24:22.428Z,33.40
2022-11-04T06:26:53.113Z,33.20
2022-11-04T06:29:23.532Z,33.50
2022-11-04T06:31:53.839Z,33.50
2022-11-04T06:34:24.383Z,33.10
2022-11-04T06:36:54.760Z,33.10
2022-11-04T06:39:24.851Z,33.40
2022-11-04T06:41:57.923Z,33.30
2022-11-04T06:44:30.167Z,33.40
2022-11-04T06:47:00.849Z,33.20
2022-11-04T06:49:31.335Z,33.30
2022-11-04T06:52:03.951Z,33.40
2022-11-04T06:54:34.533Z,33.60
2022-11-04T06:57:05.813Z,33.40
2022-11-04T06:59:36.227Z,33.40
2022-11-04T07:02:06.833Z,33.50
2022-11-04T07:04:39.248Z,33.80
2022-11-04T07:07:09.732Z,33.50
2022-11-04T07:09:40.199Z,33.50
2022-11-04T07:12:10.693Z,33.60
2022-11-04T07:14:41.338Z,33.80
2022-11-04T07:17:11.766Z,33.60
2022-11-04T07:19:42.143Z,33.50
2022-11-04T07:22:12.567Z,33.50
2022-11-04T07:24:42.559Z,33.50
2022-11-04T07:27:12.866Z,33.60
2022-11-04T07:29:44.065Z,33.50
2022-11-04T07:32:14.455Z,33.50
2022-11-04T07:34:44.847Z,33.60
2022-11-04T07:37:15.512Z,33.60
2022-11-04T07:39:46.256Z,33.90
2022-11-04T07:42:17.386Z,33.20
2022-11-04T07:44:58.136Z,33.70
2022-11-04T07:47:31.217Z,33.60
2022-11-04T07:50:05.355Z,33.30
2022-11-04T07:52:40.625Z,33.70
2022-11-04T07:55:12.056Z,33.80
2022-11-04T07:57:42.521Z,33.80
2022-11-04T08:00:13.758Z,34.00
2022-11-04T08:02:48.483Z,33.60
2022-11-04T08:05:19.524Z,33.60
2022-11-04T08:07:50.310Z,33.60
2022-11-04T08:10:20.888Z,33.50
2022-11-04T08:12:53.321Z,33.50
2022-11-04T08:15:28.717Z,33.40
2022-11-04T08:17:59.176Z,33.10
2022-11-04T08:20:29.969Z,33.00
2022-11-04T08:23:00.775Z,33.20
2022-11-04T08:25:31.338Z,33.20
2022-11-04T08:28:01.826Z,33.10
2022-11-04T08:30:32.278Z,33.20
2022-11-04T08:33:02.703Z,33.10
2022-11-04T08:35:37.036Z,32.90
2022-11-04T08:38:11.900Z,33.10
2022-11-04T08:40:42.366Z,32.90
2022-11-04T08:43:12.871Z,32.90
2022-11-04T08:45:48.044Z,32.60
2022-11-04T08:48:18.497Z,32.60
2022-11-04T08:50:58.258Z,32.70
2022-11-04T08:53:29.764Z,32.80
2022-11-04T08:56:00.895Z,32.80
2022-11-04T08:58:31.442Z,32.50
2022-11-04T09:01:07.120Z,32.50
2022-11-04T09:03:40.251Z,32.30
2022-11-04T09:06:13.521Z,32.20
2022-11-04T09:08:44.943Z,32.10
2022-11-04T09:11:17.845Z,32.10
2022-11-04T09:13:48.451Z,32.00
2022-11-04T09:16:19.582Z,32.10
2022-11-04T09:18:50.000Z,32.10
2022-11-04T09:21:20.382Z,32.10
2022-11-04T09:23:50.849Z,32.00
2022-11-04T09:26:22.841Z,31.90
2022-11-04T09:28:58.378Z,31.80
2022-11-04T09:31:31.460Z,31.70
2022-11-04T09:34:01.956Z,31.60
2022-11-04T09:36:32.514Z,31.50
2022-11-04T09:39:03.269Z,31.60
2022-11-04T09:41:52.046Z,31.70
2022-11-04T09:47:55.812Z,31.60
2022-11-04T09:50:32.913Z,31.40
2022-11-04T09:53:24.774Z,31.20
2022-11-04T09:56:04.716Z,31.20
2022-11-04T09:58:40.266Z,31.20
2022-11-04T10:01:40.730Z,31.10
2022-11-04T10:04:36.026Z,31.00
2022-11-04T10:07:32.823Z,30.80
2022-11-04T10:10:21.786Z,30.90
2022-11-04T10:13:22.644Z,30.80
2022-11-04T10:16:32.181Z,30.80
2022-11-04T10:19:41.327Z,30.70
2022-11-04T10:22:35.552Z,30.50
2022-11-04T10:25:44.667Z,30.50
2022-11-04T10:28:21.835Z,30.40
2022-11-04T10:30:54.032Z,30.20
2022-11-04T10:33:41.322Z,30.20
2022-11-04T10:36:14.538Z,30.20
2022-11-04T10:38:56.278Z,30.10
2022-11-04T10:41:35.647Z,29.90
2022-11-04T10:44:34.084Z,29.80
2022-11-04T10:47:35.900Z,29.70
2022-11-04T10:50:43.191Z,29.70
2022-11-04T10:53:20.951Z,29.60
2022-11-04T10:56:14.496Z,29.60
2022-11-04T10:58:49.493Z,29.40
2022-11-04T11:01:39.890Z,29.20
2022-11-04T11:04:11.504Z,29.30
2022-11-04T11:06:42.782Z,29.40
2022-11-04T11:09:27.258Z,29.30
2022-11-04T11:12:49.605Z,29.30
2022-11-04T11:15:34.110Z,29.10
2022-11-04T11:18:29.882Z,29.10
2022-11-04T11:21:25.499Z,29.00
2022-11-04T11:23:59.052Z,29.00
2022-11-04T11:26:34.122Z,28.90
2022-11-04T11:29:12.581Z,28.80
2022-11-04T11:31:43.488Z,28.80
2022-11-04T11:34:35.412Z,28.70
2022-11-04T11:37:07.248Z,28.80
2022-11-04T11:39:38.685Z,28.70
2022-11-04T11:42:14.778Z,28.60
2022-11-04T11:44:58.917Z,28.50
2022-11-04T11:47:45.314Z,28.20
2022-11-04T11:50:32.617Z,27.30
2022-11-04T11:53:25.836Z,26.90
2022-11-04T11:56:40.482Z,26.80
2022-11-04T12:03:09.429Z,27.20
2022-11-04T12:06:20.396Z,27.60
2022-11-04T12:09:23.499Z,27.70
2022-11-04T12:12:18.693Z,27.80
2022-11-04T12:15:28.486Z,27.80
2022-11-04T12:18:28.441Z,27.40
2022-11-04T12:21:28.607Z,27.60
2022-11-04T12:24:22.402Z,27.60
2022-11-04T12:27:26.885Z,27.50
2022-11-04T12:30:24.041Z,27.30
2022-11-04T12:33:38.067Z,27.30
2022-11-04T12:36:44.103Z,27.30
2022-11-04T12:39:40.911Z,26.80
2022-11-04T12:42:41.118Z,26.60
2022-11-04T12:45:51.039Z,27.10
2022-11-04T12:48:57.897Z,27.20
2022-11-04T12:51:55.344Z,27.20
2022-11-04T12:55:03.965Z,27.30
2022-11-04T12:58:01.703Z,27.20
2022-11-04T13:00:33.243Z,27.00
2022-11-04T13:03:26.505Z,27.10
2022-11-04T13:06:19.315Z,27.10
2022-11-04T13:09:16.404Z,27.10
2022-11-04T13:11:57.779Z,27.00
2022-11-04T13:14:53.026Z,26.90
2022-11-04T13:17:40.745Z,26.90
2022-11-04T13:20:44.977Z,26.80
2022-11-04T13:23:40.051Z,26.90
2022-11-04T13:26:17.435Z,26.60
2022-11-04T13:29:17.934Z,26.60
2022-11-04T13:32:14.012Z,26.70
2022-11-04T13:35:07.536Z,26.60
2022-11-04T13:38:07.166Z,26.60
2022-11-04T13:41:01.191Z,26.60
2022-11-04T13:43:39.652Z,26.70
2022-11-04T13:46:34.275Z,26.60
2022-11-04T13:49:32.013Z,26.60
2022-11-04T13:52:20.552Z,26.40
2022-11-04T13:55:01.931Z,26.40
2022-11-04T13:57:53.247Z,25.90
2022-11-04T14:00:29.701Z,25.80
2022-11-04T14:03:02.547Z,25.90
2022-11-04T14:06:08.214Z,26.10
2022-11-04T14:08:58.505Z,26.20
2022-11-04T14:11:28.920Z,26.20
2022-11-04T14:14:15.420Z,26.30
2022-11-04T14:16:46.974Z,26.20
2022-11-04T14:19:57.592Z,25.50
2022-11-04T14:22:51.537Z,25.10
2022-11-04T14:25:47.640Z,24.90
2022-11-04T14:28:27.048Z,24.70
2022-11-04T14:31:04.052Z,24.90
2022-11-04T14:33:55.844Z,25.10
2022-11-04T14:36:40.912Z,24.90
2022-11-04T14:39:33.615Z,24.90
2022-11-04T14:42:08.122Z,24.70
2022-11-04T14:44:51.661Z,25.00
2022-11-04T14:47:31.115Z,25.40
2022-11-04T14:50:09.149Z,25.60
2022-11-04T14:53:01.071Z,25.60
2022-11-04T14:55:34.350Z,25.70
2022-11-04T14:58:29.664Z,25.70
2022-11-04T15:01:05.187Z,25.80
2022-11-04T15:04:11.214Z,25.60
2022-11-04T15:06:53.562Z,25.50
2022-11-04T15:09:27.134Z,25.50
2022-11-04T15:12:40.240Z,25.50
2022-11-04T15:15:32.500Z,25.60
2022-11-04T15:18:11.208Z,25.70
2022-11-04T15:20:50.353Z,25.40
2022-11-04T15:23:29.312Z,25.00
2022-11-04T15:26:01.263Z,25.20
2022-11-04T15:28:42.130Z,25.30
2022-11-04T15:31:27.882Z,25.20
2022-11-04T15:34:14.345Z,24.80
2022-11-04T15:36:46.415Z,24.70
2022-11-04T15:39:32.325Z,25.00
2022-11-04T15:42:27.997Z,25.10
2022-11-04T15:44:59.002Z,25.10
2022-11-04T15:47:30.775Z,25.00
2022-11-04T15:50:17.403Z,24.90
2022-11-04T15:52:58.375Z,24.70
2022-11-04T15:55:30.478Z,24.80
2022-11-04T15:58:01.259Z,24.80
2022-11-04T16:00:32.411Z,24.90
2022-11-04T16:03:03.761Z,24.90
2022-11-04T16:05:39.364Z,24.80
2022-11-04T16:08:31.574Z,24.90
2022-11-04T16:11:22.406Z,24.80
2022-11-04T16:13:52.596Z,24.70
2022-11-04T16:16:26.490Z,24.70
2022-11-04T16:18:59.181Z,24.70
2022-11-04T16:21:32.937Z,24.70
2022-11-04T16:24:24.657Z,24.90
2022-11-04T16:27:00.744Z,25.00
2022-11-04T16:29:37.705Z,24.90
2022-11-04T16:32:32.680Z,24.70
2022-11-04T16:35:11.557Z,24.50
2022-11-04T16:37:42.004Z,24.50
2022-11-04T16:40:13.648Z,24.50
2022-11-04T16:42:45.404Z,24.60
2022-11-04T16:45:36.863Z,24.30
2022-11-04T16:48:07.630Z,24.50
2022-11-04T16:50:38.058Z,24.50
2022-11-04T16:53:12.907Z,24.50
2022-11-04T16:55:44.942Z,24.50
2022-11-04T16:58:21.955Z,24.50
2022-11-04T17:00:52.282Z,24.30
2022-11-04T17:03:23.768Z,24.30
2022-11-04T17:05:57.784Z,24.40
2022-11-04T17:08:28.739Z,24.30
2022-11-04T17:10:59.964Z,24.30
2022-11-04T17:13:36.129Z,24.30
2022-11-04T17:16:09.260Z,24.20
2022-11-04T17:18:40.328Z,24.10
2022-11-04T17:21:14.981Z,24.20
2022-11-04T17:23:46.084Z,24.30
2022-11-04T17:26:16.348Z,24.30
2022-11-04T17:28:46.782Z,24.20
2022-11-04T17:31:21.804Z,24.30
2022-11-04T17:33:52.167Z,24.30
2022-11-04T17:36:22.408Z,24.10
2022-11-04T17:38:52.396Z,24.10
2022-11-04T17:41:42.663Z,24.20
2022-11-04T17:44:13.560Z,24.20
2022-11-04T17:46:49.031Z,24.10
2022-11-04T17:49:22.575Z,24.20
2022-11-04T17:51:55.457Z,24.20
2022-11-04T17:54:27.178Z,24.00
2022-11-04T17:56:57.642Z,24.00
2022-11-04T17:59:31.198Z,24.00
2022-11-04T18:02:05.961Z,24.00
2022-11-04T18:04:36.805Z,23.90
2022-11-04T18:07:07.297Z,23.90
2022-11-04T18:09:37.906Z,23.90
2022-11-04T18:12:28.657Z,23.90
2022-11-04T18:14:58.984Z,23.70
2022-11-04T18:17:29.590Z,23.70
2022-11-04T18:20:00.261Z,23.70
2022-11-04T18:22:30.680Z,23.60
2022-11-04T18:25:01.059Z,23.70
2022-11-04T18:27:31.641Z,23.60
2022-11-04T18:30:02.330Z,23.60
2022-11-04T18:32:33.080Z,23.80
2022-11-04T18:35:03.555Z,23.70
2022-11-04T18:37:34.867Z,23.70
2022-11-04T18:40:05.438Z,23.80
2022-11-04T18:42:35.397Z,23.70
2022-11-04T18:45:06.208Z,23.60
2022-11-04T18:47:35.970Z,23.70
2022-11-04T18:50:06.515Z,23.70
2022-11-04T18:52:37.159Z,23.70
2022-11-04T18:55:08.052Z,23.70
2022-11-04T18:57:38.074Z,23.80
2022-11-04T19:00:12.924Z,23.70
2022-11-04T19:02:46.717Z,23.70
2022-11-04T19:05:17.572Z,23.60
2022-11-04T19:07:48.068Z,23.60
2022-11-04T19:10:18.571Z,23.60
2022-11-04T19:13:08.882Z,23.70
2022-11-04T19:15:39.424Z,23.70
2022-11-04T19:18:10.388Z,23.60
2022-11-04T19:20:40.960Z,23.50
2022-11-04T19:23:12.651Z,23.50
2022-11-04T19:25:44.108Z,23.60
2022-11-04T19:31:05.534Z,23.50
2022-11-04T19:33:36.026Z,23.50
2022-11-04T19:36:07.835Z,23.50
2022-11-04T19:38:38.640Z,23.40
2022-11-04T19:41:34.317Z,23.30
2022-11-04T19:44:06.926Z,23.30
2022-11-04T19:46:37.729Z,23.20
2022-11-04T19:49:08.761Z,23.40
2022-11-04T19:51:39.969Z,23.40
2022-11-04T19:54:11.586Z,23.30
2022-11-04T19:56:42.409Z,23.30
2022-11-04T19:59:14.108Z,23.20
2022-11-04T20:01:44.932Z,23.30
2022-11-04T20:04:15.757Z,23.50
2022-11-04T20:06:46.091Z,23.60
2022-11-04T20:09:17.311Z,23.70
2022-11-04T20:12:07.281Z,23.60
2022-11-04T20:14:38.292Z,23.70
2022-11-04T20:17:09.037Z,23.60
2022-11-04T20:19:39.348Z,23.50
2022-11-04T20:22:10.656Z,23.60
2022-11-04T20:24:41.093Z,23.40
2022-11-04T20:27:16.566Z,23.30
2022-11-04T20:29:47.368Z,23.40
2022-11-04T20:32:17.698Z,23.30
2022-11-04T20:34:49.415Z,23.30
2022-11-04T20:37:19.749Z,23.20
2022-11-04T20:39:50.090Z,23.30
2022-11-04T20:42:20.430Z,23.30
2022-11-04T20:44:50.633Z,23.40
2022-11-04T20:47:21.093Z,23.30
2022-11-04T20:49:52.274Z,23.30
2022-11-04T20:52:22.729Z,23.40
2022-11-04T20:54:53.127Z,23.30
2022-11-04T20:57:24.305Z,23.20
2022-11-04T20:59:54.994Z,23.30
2022-11-04T21:02:26.312Z,23.20
2022-11-04T21:04:57.149Z,23.30
2022-11-04T21:07:27.521Z,23.40
2022-11-04T21:09:57.857Z,23.40
2022-11-04T21:12:28.000Z,23.30
2022-11-04T21:14:58.249Z,23.10
2022-11-04T21:17:28.765Z,23.10
2022-11-04T21:19:59.116Z,23.20
2022-11-04T21:22:29.708Z,23.20
2022-11-04T21:25:00.071Z,23.10
2022-11-04T21:27:30.724Z,23.20
2022-11-04T21:30:01.294Z,23.10
2022-11-04T21:32:32.691Z,23.00
2022-11-04T21:35:03.068Z,22.90
2022-11-04T21:37:36.941Z,22.90
2022-11-04T21:40:08.410Z,23.00
2022-11-04T21:42:38.381Z,23.10
2022-11-04T21:45:08.878Z,22.90
2022-11-04T21:47:39.202Z,22.80
2022-11-04T21:50:13.803Z,22.90
2022-11-04T21:52:47.441Z,22.90
2022-11-04T21:55:17.548Z,22.70
2022-11-04T21:57:48.010Z,22.80
2022-11-04T22:00:18.595Z,22.90
2022-11-04T22:02:53.643Z,22.90
2022-11-04T22:05:24.438Z,22.90
2022-11-04T22:08:14.145Z,22.70
2022-11-04T22:10:44.505Z,22.80
2022-11-04T22:13:14.885Z,22.90
2022-11-04T22:16:05.414Z,22.80
2022-11-04T22:18:36.200Z,22.80
2022-11-04T22:21:09.984Z,22.60
2022-11-04T22:23:40.498Z,22.30
2022-11-04T22:26:17.871Z,22.20
2022-11-04T22:28:48.400Z,22.10
2022-11-04T22:31:25.478Z,22.30
2022-11-04T22:33:57.183Z,22.50
2022-11-04T22:36:28.350Z,22.50
2022-11-04T22:38:59.068Z,22.60
2022-11-04T22:41:33.118Z,22.40
2022-11-04T22:44:04.770Z,22.10
2022-11-04T22:46:36.687Z,22.00
2022-11-04T22:49:07.423Z,22.30
2022-11-04T22:51:37.738Z,22.20
2022-11-04T22:54:09.150Z,22.10
2022-11-04T22:56:39.743Z,22.20
2022-11-04T22:59:10.260Z,22.20
2022-11-04T23:01:41.362Z,22.30
2022-11-04T23:04:13.781Z,22.30
2022-11-04T23:06:44.623Z,22.40
2022-11-04T23:09:15.548Z,22.30
2022-11-04T23:12:06.296Z,22.30
2022-11-04T23:14:54.666Z,22.20
2022-11-04T23:17:45.558Z,22.10
2022-11-04T23:20:19.702Z,22.20
2022-11-04T23:23:09.960Z,22.30
2022-11-04T23:25:41.576Z,22.10
2022-11-04T23:28:31.858Z,22.10
2022-11-04T23:31:02.764Z,22.10
2022-11-04T23:33:53.306Z,22.10
2022-11-04T23:36:42.987Z,22.10
2022-11-04T23:39:13.812Z,22.20
2022-11-04T23:42:04.803Z,22.50
2022-11-04T23:44:55.061Z,22.60
2022-11-04T23:47:45.154Z,22.50
2022-11-04T23:50:35.440Z,22.60
2022-11-04T23:53:26.642Z,22.90
2022-11-04T23:56:16.648Z,23.10
2022-11-04T23:59:07.421Z,23.20
